Time;durP1;ratioP1;P1;durP2;ratioP2;P2;SDS_P1;SDS_P2;PMS_P1;PMS_P2;Temp;Humidity;BMP_temperature;BMP_pressure;BME280_temperature;BME280_humidity;BME280_pressure;Samples;Min_cycle;Max_cycle;Signal;HPM_P1;HPM_P2
2023/07/09 00:01:56;;;;;;;7.80;3.20;;;;;;;19.73;55.69;100361.20;105272;1260;65145;-62
2023/07/09 00:04:24;;;;;;;5.80;3.10;;;;;;;19.74;55.70;100356.45;105144;1264;61340;-62
2023/07/09 00:06:52;;;;;;;6.50;3.10;;;;;;;19.75;55.87;100357.46;105431;1260;63773;-62
2023/07/09 00:09:21;;;;;;;6.70;3.40;;;;;;;19.73;55.76;100358.70;105153;1259;60465;-63
2023/07/09 00:11:49;;;;;;;6.30;3.20;;;;;;;19.69;55.80;100353.16;105164;1262;60464;-64
2023/07/09 00:14:17;;;;;;;6.70;3.40;;;;;;;19.65;55.96;100348.63;105171;1261;63616;-64
2023/07/09 00:16:48;;;;;;;8.40;3.90;;;;;;;19.62;55.93;100345.23;105060;1262;60423;-63
2023/07/09 00:19:18;;;;;;;11.00;3.70;;;;;;;19.58;55.99;100341.10;105688;1259;63800;-61
2023/07/09 00:21:49;;;;;;;6.70;3.80;;;;;;;19.54;55.95;100340.30;105314;1262;62698;-61
2023/07/09 00:24:16;;;;;;;7.10;3.50;;;;;;;19.54;56.09;100342.02;105287;1262;60541;-62
2023/07/09 00:26:44;;;;;;;7.70;4.10;;;;;;;19.51;56.35;100345.18;105139;1262;65684;-62
2023/07/09 00:29:12;;;;;;;6.80;3.60;;;;;;;19.47;56.41;100344.17;105076;1263;61826;-61
2023/07/09 00:31:40;;;;;;;6.40;3.80;;;;;;;19.45;56.63;100342.39;105120;1257;62481;-61
2023/07/09 00:34:13;;;;;;;9.20;4.10;;;;;;;19.46;56.59;100338.26;105432;1262;60668;-63
2023/07/09 00:36:45;;;;;;;10.30;4.60;;;;;;;19.45;56.52;100335.45;105223;1257;60539;-62
2023/07/09 00:39:18;;;;;;;7.10;4.70;;;;;;;19.46;56.42;100334.69;104996;1263;63655;-61
2023/07/09 00:41:46;;;;;;;6.80;4.30;;;;;;;19.45;56.50;100334.09;105451;1257;61359;-63
2023/07/09 00:44:28;;;;;;;9.00;4.40;;;;;;;19.43;56.41;100338.26;105490;1264;62499;-62
2023/07/09 00:47:03;;;;;;;9.40;4.10;;;;;;;19.42;56.49;100335.33;104964;1263;60522;-62
2023/07/09 00:49:33;;;;;;;6.70;3.80;;;;;;;19.44;56.53;100336.30;105090;1264;60392;-61
2023/07/09 00:52:33;;;;;;;7.30;3.80;;;;;;;19.45;56.54;100335.33;105215;1262;63663;-61
2023/07/09 00:55:05;;;;;;;7.10;3.60;;;;;;;19.45;56.61;100336.85;105155;1264;61326;-62
2023/07/09 00:57:37;;;;;;;9.20;3.80;;;;;;;19.46;56.49;100338.09;104893;1264;63708;-61
2023/07/09 01:00:13;;;;;;;7.50;3.70;;;;;;;19.43;56.59;100339.78;104954;1260;60620;-60
2023/07/09 01:02:43;;;;;;;;;;;;;;;19.41;56.73;100335.98;104923;1263;60381;-62
2023/07/09 01:05:12;;;;;;;7.50;3.60;;;;;;;19.38;56.73;100336.86;105165;1263;63720;-63
2023/07/09 01:07:40;;;;;;;6.70;3.40;;;;;;;19.35;57.00;100336.73;105060;1262;61953;-63
2023/07/09 01:10:09;;;;;;;6.40;3.30;;;;;;;19.35;56.93;100333.86;105082;1262;64412;-61
2023/07/09 01:12:37;;;;;;;7.60;3.50;;;;;;;19.37;56.91;100333.94;104952;1263;60463;-62
2023/07/09 01:15:07;;;;;;;7.80;3.20;;;;;;;19.38;57.01;100334.15;104820;1264;60560;-61
2023/07/09 01:17:36;;;;;;;8.80;3.50;;;;;;;19.38;56.90;100330.79;105057;1261;63742;-63
2023/07/09 01:20:09;;;;;;;7.00;3.10;;;;;;;19.38;57.23;100329.55;105011;1261;61664;-60
2023/07/09 01:22:36;;;;;;;6.40;3.40;;;;;;;19.37;57.11;100335.56;105046;1263;73057;-62
2023/07/09 01:25:06;;;;;;;7.30;3.30;;;;;;;19.33;57.24;100337.43;104979;1263;60522;-59
2023/07/09 01:27:38;;;;;;;7.30;3.40;;;;;;;19.31;57.50;100337.11;105064;1264;60483;-62
2023/07/09 01:30:22;;;;;;;6.10;3.20;;;;;;;19.32;57.39;100336.48;105048;1258;63753;-59
2023/07/09 01:32:50;;;;;;;7.70;3.20;;;;;;;19.36;57.43;100337.02;105058;1263;61370;-62
2023/07/09 01:35:19;;;;;;;6.00;3.50;;;;;;;19.40;57.26;100338.98;105084;1263;63885;-63
2023/07/09 01:37:48;;;;;;;5.90;3.10;;;;;;;19.40;57.31;100341.65;105168;1257;60447;-60
2023/07/09 01:40:17;;;;;;;9.40;3.50;;;;;;;19.39;57.32;100345.09;105107;1257;60442;-61
2023/07/09 01:43:00;;;;;;;6.50;3.50;;;;;;;19.38;57.25;100345.06;105203;1261;63785;-61
2023/07/09 01:45:28;;;;;;;6.30;3.30;;;;;;;19.35;57.43;100340.96;104907;1257;60419;-61
2023/07/09 01:47:56;;;;;;;6.70;3.30;;;;;;;19.33;57.39;100340.48;105068;1262;62488;-61
2023/07/09 01:50:26;;;;;;;7.20;3.50;;;;;;;19.34;57.51;100346.80;105194;1263;60492;-62
2023/07/09 01:52:56;;;;;;;6.80;3.50;;;;;;;19.37;57.55;100354.98;105162;1258;60365;-61
2023/07/09 01:55:24;;;;;;;7.90;3.80;;;;;;;19.36;57.42;100354.48;105091;1263;64944;-60
2023/07/09 01:57:52;;;;;;;7.90;3.70;;;;;;;19.36;57.47;100356.36;105210;1263;61571;-62
2023/07/09 02:00:20;;;;;;;6.90;3.50;;;;;;;19.36;57.49;100357.62;105753;1258;63753;-62
2023/07/09 02:02:48;;;;;;;6.40;3.60;;;;;;;19.34;57.36;100359.58;105258;1260;60547;-61
2023/07/09 02:05:18;;;;;;;10.60;3.60;;;;;;;19.31;57.49;100364.22;105061;1258;60580;-61
2023/07/09 02:07:46;;;;;;;7.30;3.50;;;;;;;19.28;57.46;100364.16;105107;1262;63664;-59
2023/07/09 02:10:15;;;;;;;6.70;2.90;;;;;;;19.29;57.58;100363.03;105264;1257;61340;-60
2023/07/09 02:12:43;;;;;;;6.40;3.30;;;;;;;19.30;57.65;100363.78;105330;1258;63732;-62
2023/07/09 02:15:11;;;;;;;5.50;3.10;;;;;;;19.31;57.67;100361.38;105162;1263;60554;-62
2023/07/09 02:17:39;;;;;;;7.90;3.20;;;;;;;19.30;57.54;100364.31;105252;1262;60575;-62
2023/07/09 02:20:07;;;;;;;6.70;3.50;;;;;;;19.28;57.54;100366.66;105029;1263;65108;-61
2023/07/09 02:22:36;;;;;;;8.30;3.40;;;;;;;19.26;57.57;100369.99;105259;1262;61365;-63
2023/07/09 02:25:05;;;;;;;7.60;3.50;;;;;;;19.24;57.52;100370.71;105071;1262;63748;-62
2023/07/09 02:27:33;;;;;;;7.80;3.90;;;;;;;19.23;57.32;100371.02;105213;1258;60650;-62
2023/07/09 02:30:01;;;;;;;8.70;3.20;;;;;;;19.24;57.18;100372.51;105192;1262;60625;-60
2023/07/09 02:32:28;;;;;;;6.00;3.10;;;;;;;19.27;57.19;100381.59;105231;1257;63715;-61
2023/07/09 02:34:56;;;;;;;7.00;3.80;;;;;;;19.28;57.17;100379.10;105259;1263;68258;-62
2023/07/09 02:37:25;;;;;;;6.80;3.40;;;;;;;19.28;57.20;100378.04;105109;1263;64261;-62
2023/07/09 02:39:52;;;;;;;7.30;3.20;;;;;;;19.27;57.17;100377.77;105258;1261;60416;-63
2023/07/09 02:42:21;;;;;;;6.90;3.90;;;;;;;19.25;57.14;100379.38;104908;1265;60456;-62
2023/07/09 02:44:49;;;;;;;6.50;3.70;;;;;;;19.22;57.04;100379.36;105615;1257;63719;-62
2023/07/09 02:47:17;;;;;;;5.60;3.30;;;;;;;19.19;57.02;100381.83;105023;1257;61352;-63
2023/07/09 02:49:45;;;;;;;6.50;3.50;;;;;;;19.15;57.02;100378.84;105252;1260;63728;-62
2023/07/09 02:52:13;;;;;;;6.00;3.10;;;;;;;19.16;56.97;100376.77;105175;1263;60570;-63
2023/07/09 02:54:41;;;;;;;7.60;3.40;;;;;;;19.19;56.98;100377.92;105090;1259;60505;-61
2023/07/09 02:57:08;;;;;;;7.70;3.60;;;;;;;19.20;57.04;100375.96;104996;1263;64877;-64
2023/07/09 02:59:36;;;;;;;6.80;3.70;;;;;;;19.20;56.98;100373.63;105283;1265;61517;-61
2023/07/09 03:02:04;;;;;;;9.10;3.80;;;;;;;19.19;56.99;100373.81;105051;1261;71891;-61
2023/07/09 03:04:32;;;;;;;6.20;3.20;;;;;;;19.19;57.04;100371.44;105024;1260;60535;-60
2023/07/09 03:07:02;;;;;;;8.00;3.50;;;;;;;19.20;57.00;100371.57;105083;1263;60565;-60
2023/07/09 03:09:30;;;;;;;6.20;3.10;;;;;;;19.19;56.92;100371.07;105299;1258;63629;-61
2023/07/09 03:11:58;;;;;;;7.90;3.10;;;;;;;19.22;56.94;100372.22;104885;1263;60461;-62
2023/07/09 03:14:25;;;;;;;6.00;3.60;;;;;;;19.26;56.78;100369.21;105054;1263;62548;-60
2023/07/09 03:16:53;;;;;;;5.20;2.80;;;;;;;19.30;56.82;100368.22;105015;1257;60571;-61
2023/07/09 03:19:22;;;;;;;6.00;3.00;;;;;;;19.33;56.54;100367.19;105168;1255;60706;-62
2023/07/09 03:21:49;;;;;;;6.10;3.50;;;;;;;19.35;56.50;100366.08;105390;1257;63758;-62
2023/07/09 03:24:18;;;;;;;6.20;3.10;;;;;;;19.36;56.53;100370.56;105075;1262;61034;-62
2023/07/09 03:26:47;;;;;;;6.10;3.10;;;;;;;19.36;56.49;100373.90;104988;1263;63765;-62
2023/07/09 03:29:14;;;;;;;8.20;3.70;;;;;;;19.37;56.38;100370.27;105298;1262;60790;-62
2023/07/09 03:31:43;;;;;;;6.30;2.90;;;;;;;19.39;56.37;100366.17;105693;1258;60537;-62
2023/07/09 03:34:10;;;;;;;7.40;3.10;;;;;;;19.43;56.33;100368.86;105506;1263;65011;-62
2023/07/09 03:36:38;;;;;;;6.40;3.20;;;;;;;19.48;56.31;100369.78;105594;1257;61314;-63
2023/07/09 03:39:06;;;;;;;8.30;3.80;;;;;;;19.53;56.28;100368.23;105595;1258;63747;-62
2023/07/09 03:41:34;;;;;;;6.40;3.30;;;;;;;19.55;56.18;100365.45;105698;1260;60490;-62
2023/07/09 03:44:04;;;;;;;7.40;3.20;;;;;;;19.57;56.19;100369.50;105455;1258;60579;-63
2023/07/09 03:46:32;;;;;;;6.10;2.90;;;;;;;19.58;56.26;100367.80;105131;1262;65417;-62
2023/07/09 03:49:00;;;;;;;5.40;3.10;;;;;;;19.58;56.24;100367.55;105120;1262;62226;-60
2023/07/09 03:51:27;;;;;;;5.50;3.00;;;;;;;19.58;56.42;100365.62;105217;1264;63927;-61
2023/07/09 03:53:55;;;;;;;5.60;2.90;;;;;;;19.62;56.64;100368.26;105126;1258;60515;-60
2023/07/09 03:56:23;;;;;;;5.50;3.10;;;;;;;19.68;56.58;100369.09;105100;1256;61059;-61
2023/07/09 03:58:50;;;;;;;6.80;3.30;;;;;;;19.74;56.59;100366.31;105226;1261;64958;-63
2023/07/09 04:01:18;;;;;;;9.00;2.70;;;;;;;19.77;56.24;100368.02;105438;1262;61355;-63
2023/07/09 04:03:45;;;;;;;6.40;3.00;;;;;;;19.80;56.38;100371.84;105014;1260;63694;-65
2023/07/09 04:06:13;;;;;;;6.20;3.20;;;;;;;19.81;56.42;100370.96;105099;1260;60590;-63
2023/07/09 04:08:41;;;;;;;6.60;3.00;;;;;;;19.83;56.39;100370.81;105079;1261;60460;-62
2023/07/09 04:11:09;;;;;;;9.30;3.70;;;;;;;19.84;56.34;100370.55;105028;1260;64926;-64
2023/07/09 04:13:36;;;;;;;6.90;3.20;;;;;;;19.89;56.25;100371.63;104987;1262;61301;-61
2023/07/09 04:16:04;;;;;;;7.00;3.70;;;;;;;19.94;56.09;100377.05;105983;1258;64031;-60
2023/07/09 04:18:32;;;;;;;7.20;2.90;;;;;;;19.97;56.05;100375.65;105054;1262;61702;-61
2023/07/09 04:21:06;;;;;;;5.60;3.20;;;;;;;19.99;56.03;100372.71;105800;1257;60551;-63
2023/07/09 04:25:12;;;;;;;6.00;3.50;;;;;;;19.99;56.06;100371.62;105056;1261;65248;-62
2023/07/09 04:28:32;;;;;;;8.90;3.40;;;;;;;19.99;56.05;100371.32;105172;1261;61399;-63
2023/07/09 04:30:59;;;;;;;6.30;3.10;;;;;;;19.99;55.95;100373.66;105407;1258;62475;-61
2023/07/09 04:33:27;;;;;;;6.70;3.30;;;;;;;20.01;55.93;100373.29;105606;1258;60538;-63
2023/07/09 04:35:55;;;;;;;7.10;3.20;;;;;;;20.03;56.04;100373.48;105829;1260;60371;-64
2023/07/09 04:38:22;;;;;;;5.60;3.10;;;;;;;20.04;56.04;100375.91;105764;1257;64864;-67
2023/07/09 04:40:50;;;;;;;7.40;3.10;;;;;;;20.02;55.84;100372.35;105749;1258;61381;-63
2023/07/09 04:43:55;;;;;;;5.50;3.20;;;;;;;19.99;55.76;100377.89;105674;1258;63716;-61
2023/07/09 04:46:23;;;;;;;5.80;3.10;;;;;;;19.95;55.76;100380.14;105666;1258;60532;-60
2023/07/09 04:48:50;;;;;;;6.00;3.30;;;;;;;19.96;56.20;100384.30;105183;1257;60620;-61
2023/07/09 04:51:18;;;;;;;8.00;3.30;;;;;;;20.01;56.19;100384.05;105817;1257;63708;-60
2023/07/09 04:53:45;;;;;;;7.80;3.60;;;;;;;20.04;55.98;100381.74;104946;1263;61332;-63
2023/07/09 04:56:13;;;;;;;5.80;3.30;;;;;;;20.05;55.49;100389.65;105148;1258;63873;-66
2023/07/09 04:58:40;;;;;;;9.60;3.60;;;;;;;20.04;55.56;100388.85;105005;1261;60598;-67
2023/07/09 05:01:08;;;;;;;5.90;3.30;;;;;;;20.02;55.61;100388.58;105808;1256;60919;-62
2023/07/09 05:03:36;;;;;;;8.80;3.70;;;;;;;19.97;55.64;100389.66;105792;1264;63653;-66
2023/07/09 05:06:03;;;;;;;6.60;3.60;;;;;;;19.94;55.41;100385.67;105184;1260;60428;-62
2023/07/09 05:08:31;;;;;;;9.70;3.30;;;;;;;19.92;55.35;100384.09;105332;1259;63688;-63
2023/07/09 05:10:59;;;;;;;6.10;3.40;;;;;;;19.93;55.24;100378.66;105732;1264;60534;-60
2023/07/09 05:13:27;;;;;;;8.30;3.40;;;;;;;19.95;55.79;100383.95;105239;1259;60490;-63
2023/07/09 05:15:54;;;;;;;7.10;3.20;;;;;;;19.97;55.77;100379.95;105714;1258;64845;-64
2023/07/09 05:18:23;;;;;;;6.10;3.10;;;;;;;20.00;55.69;100379.72;105749;1257;62266;-66
2023/07/09 05:20:51;;;;;;;7.50;3.60;;;;;;;20.07;55.49;100380.30;105091;1258;62456;-62
2023/07/09 05:23:19;;;;;;;7.10;4.00;;;;;;;20.16;55.44;100378.37;105709;1260;60562;-70
2023/07/09 05:25:46;;;;;;;5.50;3.50;;;;;;;20.21;55.65;100380.61;105534;1258;60497;-63
2023/07/09 05:28:14;;;;;;;7.30;3.70;;;;;;;20.26;55.06;100381.61;105319;1262;64874;-62
2023/07/09 05:30:42;;;;;;;8.30;3.50;;;;;;;20.28;55.11;100378.81;105778;1261;60342;-63
2023/07/09 05:33:09;;;;;;;6.00;3.40;;;;;;;20.30;55.21;100379.89;105751;1259;62478;-65
2023/07/09 05:35:42;;;;;;;7.20;3.40;;;;;;;20.31;55.24;100378.18;105739;1260;60512;-66
2023/07/09 05:38:09;;;;;;;8.50;3.40;;;;;;;20.37;54.85;100376.86;105504;1257;60512;-62
2023/07/09 05:40:37;;;;;;;6.40;3.10;;;;;;;20.45;55.18;100374.98;105131;1257;65675;-71
2023/07/09 05:45:42;;;;;;;7.80;3.50;;;;;;;20.37;55.43;100381.34;102958;1295;601051;-70
2023/07/09 05:48:10;;;;;;;7.80;3.40;;;;;;;20.62;54.79;100386.36;105370;1267;59580;-65
2023/07/09 05:50:37;;;;;;;7.90;3.40;;;;;;;20.70;54.19;100386.72;104607;1264;59385;-61
2023/07/09 05:53:05;;;;;;;7.00;3.60;;;;;;;20.76;53.84;100388.92;108439;1264;71164;-65
2023/07/09 05:55:32;;;;;;;7.80;3.60;;;;;;;20.81;53.81;100391.19;108461;1264;61375;-68
2023/07/09 05:58:00;;;;;;;7.60;3.30;;;;;;;20.88;53.66;100388.23;107129;1264;64433;-68
2023/07/09 06:00:27;;;;;;;6.90;3.50;;;;;;;20.97;53.31;100384.70;105180;1264;334002;-67
2023/07/09 06:02:55;;;;;;;9.80;3.30;;;;;;;21.06;53.18;100386.95;105476;1261;59346;-64
2023/07/09 06:05:23;;;;;;;6.10;3.40;;;;;;;21.14;53.60;100391.27;105438;1263;62274;-64
2023/07/09 06:07:50;;;;;;;6.00;3.30;;;;;;;21.21;53.97;100387.58;104970;1267;61324;-60
2023/07/09 06:10:18;;;;;;;5.90;3.10;;;;;;;21.27;53.59;100388.92;104836;1264;63740;-64
2023/07/09 06:12:46;;;;;;;5.80;3.20;;;;;;;21.33;52.86;100389.50;104861;1270;59759;-60
2023/07/09 06:15:13;;;;;;;7.10;3.40;;;;;;;21.38;53.01;100391.77;104959;1267;59626;-64
2023/07/09 06:17:41;;;;;;;10.00;3.20;;;;;;;21.43;52.54;100391.14;105289;1267;64054;-61
2023/07/09 06:20:10;;;;;;;9.40;3.40;;;;;;;21.50;52.54;100391.95;105270;1264;61399;-62
2023/07/09 06:22:38;;;;;;;6.50;3.00;;;;;;;21.58;52.65;100391.34;104767;1264;63843;-64
2023/07/09 06:25:06;;;;;;;10.90;3.80;;;;;;;21.68;52.63;100391.86;104972;1267;59691;-73
2023/07/09 06:27:35;;;;;;;6.20;3.30;;;;;;;21.77;51.88;100390.22;105459;1262;59647;-71
2023/07/09 06:30:03;;;;;;;5.80;2.80;;;;;;;21.83;51.14;100388.73;104833;1262;62856;-60
2023/07/09 06:32:31;;;;;;;8.60;3.10;;;;;;;21.87;50.97;100385.50;105520;1270;60200;-59
2023/07/09 06:34:58;;;;;;;8.70;2.80;;;;;;;21.91;51.11;100385.90;104855;1267;62435;-60
2023/07/09 06:37:26;;;;;;;10.60;3.60;;;;;;;21.95;50.93;100385.02;104754;1267;59722;-72
2023/07/09 06:39:54;;;;;;;11.80;3.30;;;;;;;21.99;50.51;100383.48;104919;1265;59570;-71
2023/07/09 06:42:21;;;;;;;6.90;2.70;;;;;;;22.04;50.09;100380.98;104962;1264;64228;-75
2023/07/09 06:44:56;;;;;;;9.40;3.30;;;;;;;22.08;50.21;100379.82;105054;1263;61303;-62
2023/07/09 06:47:23;;;;;;;5.30;2.60;;;;;;;22.18;50.82;100374.58;105123;1264;63787;-65
2023/07/09 06:49:51;;;;;;;8.00;3.40;;;;;;;22.26;50.39;100369.29;105024;1260;59742;-79
2023/07/09 06:52:18;;;;;;;6.10;3.10;;;;;;;22.32;49.41;100370.80;105045;1260;59678;-62
2023/07/09 06:54:46;;;;;;;4.90;2.50;;;;;;;22.38;49.47;100376.42;105063;1264;62860;-60
2023/07/09 06:57:14;;;;;;;6.60;2.90;;;;;;;22.43;48.88;100372.94;104947;1264;60221;-64
2023/07/09 06:59:41;;;;;;;5.50;2.50;;;;;;;22.47;49.89;100375.14;104912;1260;63734;-60
2023/07/09 07:02:09;;;;;;;6.20;2.70;;;;;;;22.53;49.19;100369.70;105026;1260;59732;-64
2023/07/09 07:04:36;;;;;;;5.30;2.40;;;;;;;22.56;49.65;100364.31;104809;1261;59641;-59
2023/07/09 07:07:04;;;;;;;5.60;2.70;;;;;;;22.61;50.21;100366.30;105059;1259;63022;-64
2023/07/09 07:09:31;;;;;;;4.90;2.60;;;;;;;22.70;49.70;100365.16;104860;1261;61422;-65
2023/07/09 07:11:59;;;;;;;4.80;2.80;;;;;;;22.75;49.39;100366.21;105493;1261;63791;-64
2023/07/09 07:14:26;;;;;;;6.70;2.70;;;;;;;22.83;48.08;100366.39;104908;1261;59725;-64
2023/07/09 07:16:56;;;;;;;5.50;2.30;;;;;;;22.99;47.30;100365.14;104591;1260;59686;-63
2023/07/09 07:19:24;;;;;;;6.10;2.30;;;;;;;22.94;46.35;100365.79;108788;1260;64191;-64
2023/07/09 07:21:51;;;;;;;5.80;2.70;;;;;;;22.92;46.86;100366.37;108767;1260;61923;-66
2023/07/09 07:24:19;;;;;;;4.20;2.00;;;;;;;22.99;47.27;100363.16;108600;1260;63737;-63
2023/07/09 07:26:46;;;;;;;4.50;2.20;;;;;;;23.05;46.59;100358.46;104888;1261;59822;-60
2023/07/09 07:29:14;;;;;;;5.20;2.60;;;;;;;23.15;45.81;100361.59;104786;1261;59816;-65
2023/07/09 07:31:41;;;;;;;7.30;2.30;;;;;;;23.30;46.02;100361.74;104913;1261;65294;-62
2023/07/09 07:34:10;;;;;;;7.10;2.10;;;;;;;23.35;45.60;100360.16;104897;1261;61420;-64
2023/07/09 07:36:37;;;;;;;4.40;1.80;;;;;;;23.44;43.90;100361.08;104980;1260;63692;-64
2023/07/09 07:39:09;;;;;;;4.80;2.20;;;;;;;23.53;44.58;100364.13;104965;1259;59809;-69
2023/07/09 07:41:37;;;;;;;6.00;2.80;;;;;;;23.57;46.36;100365.55;104974;1260;59755;-62
2023/07/09 07:44:04;;;;;;;4.90;2.30;;;;;;;23.58;47.11;100361.59;104869;1264;64208;-63
2023/07/09 07:46:33;;;;;;;5.50;2.70;;;;;;;23.71;46.43;100361.91;104882;1260;60105;-62
2023/07/09 07:49:01;;;;;;;9.60;2.90;;;;;;;23.78;46.28;100356.39;105082;1260;62429;-62
2023/07/09 07:51:28;;;;;;;6.90;2.80;;;;;;;23.69;46.70;100358.23;105112;1260;59727;-62
2023/07/09 07:53:56;;;;;;;6.00;2.40;;;;;;;23.69;45.76;100355.46;105175;1260;59815;-61
2023/07/09 07:56:23;;;;;;;4.10;1.90;;;;;;;23.73;45.58;100354.16;104949;1261;62855;-63
2023/07/09 07:58:51;;;;;;;7.40;2.50;;;;;;;23.78;45.38;100349.81;104923;1264;60124;-62
2023/07/09 08:01:18;;;;;;;5.80;2.40;;;;;;;23.81;45.06;100349.61;105196;1261;64271;-63
2023/07/09 08:03:46;;;;;;;5.20;2.50;;;;;;;23.82;45.04;100349.30;105343;1264;59755;-64
2023/07/09 08:06:13;;;;;;;5.40;2.30;;;;;;;23.82;44.75;100345.50;105312;1256;59567;-58
2023/07/09 08:08:41;;;;;;;5.90;2.40;;;;;;;23.87;45.32;100344.20;105404;1260;64649;-59
2023/07/09 08:11:09;;;;;;;5.20;2.40;;;;;;;23.90;44.57;100343.65;105457;1254;61371;-58
2023/07/09 08:13:37;;;;;;;5.00;2.10;;;;;;;23.92;44.16;100346.04;105357;1254;63755;-61
2023/07/09 08:16:05;;;;;;;7.30;2.40;;;;;;;23.95;44.54;100345.70;105334;1256;59749;-58
2023/07/09 08:18:33;;;;;;;4.30;2.30;;;;;;;23.98;44.43;100344.98;109089;1254;57367;-59
2023/07/09 08:21:01;;;;;;;6.40;2.50;;;;;;;23.99;43.63;100348.96;109045;1254;64202;-60
2023/07/09 08:23:28;;;;;;;5.50;2.40;;;;;;;24.00;43.63;100347.81;108659;1257;61979;-59
2023/07/09 08:25:57;;;;;;;4.60;2.30;;;;;;;24.01;44.11;100348.34;105539;1257;63756;-60
2023/07/09 08:28:24;;;;;;;4.80;2.40;;;;;;;24.03;43.58;100352.09;105406;1260;59707;-59
2023/07/09 08:30:53;;;;;;;5.70;2.30;;;;;;;24.08;44.11;100349.79;105300;1260;61632;-60
2023/07/09 08:33:21;;;;;;;6.90;2.50;;;;;;;24.15;43.81;100349.98;105497;1260;64112;-60
2023/07/09 08:35:49;;;;;;;6.30;1.70;;;;;;;24.22;43.25;100344.20;105434;1260;61495;-60
2023/07/09 08:38:18;;;;;;;6.00;2.10;;;;;;;24.28;42.80;100345.48;105605;1257;63854;-59
2023/07/09 08:41:01;;;;;;;6.50;2.70;;;;;;;24.32;42.67;100341.63;105315;1258;60031;-62
2023/07/09 08:43:49;;;;;;;5.40;2.40;;;;;;;24.36;41.55;100343.09;108099;1254;59669;-59
2023/07/09 08:46:19;;;;;;;4.30;1.90;;;;;;;24.42;42.26;100346.70;105205;1254;62824;-61
2023/07/09 08:48:48;;;;;;;5.60;2.30;;;;;;;24.48;41.83;100342.12;105446;1254;61359;-59
2023/07/09 08:51:21;;;;;;;4.90;2.10;;;;;;;24.54;41.92;100344.71;106118;1257;62578;-68
2023/07/09 08:53:51;;;;;;;5.30;2.10;;;;;;;24.58;40.82;100344.70;105949;1254;59641;-72
2023/07/09 08:56:19;;;;;;;4.50;1.80;;;;;;;24.62;40.24;100342.85;105858;1256;59736;-70
2023/07/09 08:59:35;;;;;;;4.30;2.00;;;;;;;24.69;41.27;100347.86;105830;1254;62829;-74
2023/07/09 09:02:03;;;;;;;5.30;1.90;;;;;;;24.74;40.56;100343.31;105769;1256;61366;-67
2023/07/09 09:04:34;;;;;;;4.70;2.00;;;;;;;24.80;40.28;100345.01;105841;1258;62537;-67
2023/07/09 09:07:07;;;;;;;4.60;1.90;;;;;;;24.86;40.22;100350.85;105892;1257;59764;-76
2023/07/09 09:09:54;;;;;;;6.00;2.30;;;;;;;24.89;39.53;100346.23;105909;1257;59608;-69
2023/07/09 09:12:44;;;;;;;4.30;1.80;;;;;;;24.95;40.15;100345.07;105851;1254;64139;-70
2023/07/09 09:15:14;;;;;;;5.00;1.90;;;;;;;25.00;39.07;100346.11;105733;1262;60235;-70
2023/07/09 09:17:42;;;;;;;4.00;1.90;;;;;;;25.07;39.27;100347.26;105881;1260;62485;-75
2023/07/09 09:20:19;;;;;;;6.20;1.90;;;;;;;25.12;38.99;100342.33;105864;1260;59752;-71
2023/07/09 09:22:57;;;;;;;7.40;1.70;;;;;;;25.16;39.20;100345.70;105921;1257;59700;-73
2023/07/09 09:25:27;;;;;;;4.60;1.90;;;;;;;25.21;38.76;100343.61;105908;1254;62878;-61
2023/07/09 09:27:55;;;;;;;4.10;1.50;;;;;;;25.29;38.59;100345.55;105770;1260;60124;-65
2023/07/09 09:30:24;;;;;;;3.80;1.60;;;;;;;25.35;37.85;100342.66;105204;1257;63689;-68
2023/07/09 09:32:58;;;;;;;4.90;1.60;;;;;;;25.37;38.07;100342.27;109078;1254;57655;-65
2023/07/09 09:35:31;;;;;;;6.20;1.60;;;;;;;25.40;38.66;100348.44;106797;1254;59679;-67
2023/07/09 09:37:59;;;;;;;6.80;2.10;;;;;;;25.48;39.36;100353.19;109083;1254;62843;-67
2023/07/09 09:40:29;;;;;;;5.50;1.80;;;;;;;25.53;38.28;100349.48;109134;1254;61463;-62
2023/07/09 09:42:57;;;;;;;5.10;2.00;;;;;;;25.60;37.72;100351.57;109074;1254;63678;-65
2023/07/09 09:45:28;;;;;;;4.30;1.60;;;;;;;25.63;36.60;100345.73;108942;1257;57464;-62
2023/07/09 09:47:59;;;;;;;4.50;1.50;;;;;;;25.68;36.68;100345.65;109035;1257;57662;-61
2023/07/09 09:50:30;;;;;;;6.90;1.90;;;;;;;25.72;36.78;100344.11;109135;1254;64593;-62
2023/07/09 09:52:57;;;;;;;4.90;2.00;;;;;;;25.76;36.69;100345.59;109108;1254;60149;-61
2023/07/09 09:55:32;;;;;;;3.50;1.50;;;;;;;25.78;35.76;100342.42;108970;1254;63782;-60
2023/07/09 09:58:00;;;;;;;4.30;1.80;;;;;;;25.83;35.74;100351.76;105941;1254;60421;-61
2023/07/09 10:00:28;;;;;;;3.20;1.40;;;;;;;25.87;36.28;100348.88;105627;1260;60373;-59
2023/07/09 10:02:58;;;;;;;5.60;2.00;;;;;;;25.91;36.55;100344.14;105291;1254;64888;-59
2023/07/09 10:05:38;;;;;;;5.80;1.60;;;;;;;25.96;36.99;100342.90;105414;1254;61352;-59
2023/07/09 10:08:14;;;;;;;4.30;1.80;;;;;;;26.04;37.42;100343.73;105381;1260;64398;-60
2023/07/09 10:10:42;;;;;;;4.00;1.60;;;;;;;26.12;37.17;100342.42;105271;1260;60571;-62
2023/07/09 10:13:29;;;;;;;5.40;2.10;;;;;;;26.19;37.24;100347.42;105219;1254;60669;-60
2023/07/09 10:16:07;;;;;;;4.30;1.50;;;;;;;26.23;36.89;100341.34;105457;1257;64913;-60
2023/07/09 10:18:58;;;;;;;3.70;1.50;;;;;;;26.24;36.68;100343.86;105582;1260;60450;-57
2023/07/09 10:22:05;;;;;;;4.20;1.90;;;;;;;26.23;36.16;100339.64;105351;1256;63751;-58
2023/07/09 10:24:45;;;;;;;5.40;1.90;;;;;;;26.21;36.19;100340.32;105561;1257;60558;-58
2023/07/09 10:27:34;;;;;;;4.90;1.80;;;;;;;26.21;36.26;100334.48;105336;1254;60479;-59
2023/07/09 10:30:47;;;;;;;7.50;2.00;;;;;;;26.21;35.94;100338.43;105411;1255;64846;-60
2023/07/09 10:33:26;;;;;;;8.10;2.20;;;;;;;26.23;35.88;100339.06;105429;1254;61389;-58
2023/07/09 10:36:07;;;;;;;4.70;1.70;;;;;;;26.22;35.87;100333.23;105427;1254;62468;-59
2023/07/09 10:38:41;;;;;;;4.80;1.80;;;;;;;26.21;36.28;100337.18;105360;1260;60484;-61
2023/07/09 10:41:10;;;;;;;3.60;1.40;;;;;;;26.18;35.75;100339.95;105364;1260;60357;-61
2023/07/09 10:43:59;;;;;;;4.90;2.20;;;;;;;26.14;35.82;100340.63;105460;1257;64984;-59
2023/07/09 10:46:28;;;;;;;5.80;1.80;;;;;;;26.12;37.08;100347.78;105495;1254;61361;-62
2023/07/09 10:48:56;;;;;;;4.20;1.70;;;;;;;26.12;37.09;100341.43;105471;1254;62507;-61
2023/07/09 10:51:29;;;;;;;4.30;1.70;;;;;;;26.14;36.54;100336.59;105382;1258;60571;-64
2023/07/09 10:54:12;;;;;;;3.50;1.50;;;;;;;26.17;35.95;100338.19;105230;1254;60549;-59
2023/07/09 10:56:39;;;;;;;5.50;1.90;;;;;;;26.20;35.57;100333.49;105273;1254;63626;-59
2023/07/09 10:59:13;;;;;;;5.10;2.20;;;;;;;26.27;35.48;100334.77;105179;1257;61532;-66
2023/07/09 11:01:45;;;;;;;3.90;1.60;;;;;;;26.34;35.24;100336.73;105313;1260;63775;-58
2023/07/09 11:04:30;;;;;;;4.10;1.30;;;;;;;26.38;35.92;100337.80;105484;1257;60535;-59
2023/07/09 11:07:00;;;;;;;4.70;1.70;;;;;;;26.43;35.59;100332.35;105623;1260;60507;-59
2023/07/09 11:09:34;;;;;;;4.30;2.00;;;;;;;26.48;35.49;100330.91;105420;1254;63667;-59
2023/07/09 11:12:11;;;;;;;4.00;1.50;;;;;;;26.55;35.62;100332.53;105270;1254;62049;-67
2023/07/09 11:14:51;;;;;;;4.40;2.00;;;;;;;26.59;34.95;100327.19;105289;1255;63705;-59
2023/07/09 11:17:19;;;;;;;6.90;1.90;;;;;;;26.64;35.33;100326.80;105401;1259;60666;-62
2023/07/09 11:19:49;;;;;;;4.50;1.90;;;;;;;26.67;34.85;100325.80;105421;1260;60360;-60
2023/07/09 11:22:23;;;;;;;5.30;2.40;;;;;;;26.73;35.33;100324.55;105416;1254;63706;-61
2023/07/09 11:25:12;;;;;;;4.50;1.70;;;;;;;26.82;35.83;100323.50;105339;1257;61330;-60
2023/07/09 11:27:52;;;;;;;5.30;2.00;;;;;;;26.94;35.32;100320.21;105414;1256;65563;-59
2023/07/09 11:30:20;;;;;;;4.50;2.00;;;;;;;26.97;33.88;100315.26;105402;1254;60441;-61
2023/07/09 11:32:53;;;;;;;5.30;1.60;;;;;;;27.02;33.85;100318.20;105307;1260;60440;-63
2023/07/09 11:35:23;;;;;;;10.70;1.70;;;;;;;27.10;34.34;100318.44;105429;1260;64932;-58
2023/07/09 11:37:52;;;;;;;4.00;1.60;;;;;;;27.16;34.87;100315.44;105645;1257;61427;-57